sensor_id;sensor_type;location;lat;lon;timestamp;pressure;altitude;pressure_sealevel;temperature;humidity
33286;BME280;19656;50.096;20.014;2023-07-31T00:04:46;98537.99;;;21.15;62.50
33286;BME280;19656;50.096;20.014;2023-07-31T00:09:49;98543.76;;;21.09;62.45
33286;BME280;19656;50.096;20.014;2023-07-31T00:14:52;98550.17;;;21.02;62.55
33286;BME280;19656;50.096;20.014;2023-07-31T00:19:55;98551.61;;;20.97;62.58
33286;BME280;19656;50.096;20.014;2023-07-31T00:24:58;98551.52;;;20.92;62.66
33286;BME280;19656;50.096;20.014;2023-07-31T00:30:08;98548.45;;;20.87;62.82
33286;BME280;19656;50.096;20.014;2023-07-31T00:35:11;98546.88;;;20.83;62.85
33286;BME280;19656;50.096;20.014;2023-07-31T00:40:14;98556.33;;;20.78;62.78
33286;BME280;19656;50.096;20.014;2023-07-31T00:45:17;98555.00;;;20.72;63.03
33286;BME280;19656;50.096;20.014;2023-07-31T00:50:25;98558.63;;;20.73;63.09
33286;BME280;19656;50.096;20.014;2023-07-31T00:55:30;98554.43;;;20.72;62.92
33286;BME280;19656;50.096;20.014;2023-07-31T01:00:33;98555.94;;;20.68;63.09
33286;BME280;19656;50.096;20.014;2023-07-31T01:05:44;98558.38;;;20.59;63.23
33286;BME280;19656;50.096;20.014;2023-07-31T01:10:56;98557.51;;;20.54;63.53
33286;BME280;19656;50.096;20.014;2023-07-31T01:30:43;98558.47;;;20.24;64.80
33286;BME280;19656;50.096;20.014;2023-07-31T01:35:48;98558.63;;;20.18;65.15
33286;BME280;19656;50.096;20.014;2023-07-31T01:40:52;98564.16;;;20.16;65.49
33286;BME280;19656;50.096;20.014;2023-07-31T01:45:56;98564.17;;;20.18;65.67
33286;BME280;19656;50.096;20.014;2023-07-31T01:51:00;98558.59;;;20.16;65.87
33286;BME280;19656;50.096;20.014;2023-07-31T01:56:03;98565.58;;;20.17;66.07
33286;BME280;19656;50.096;20.014;2023-07-31T02:01:07;98563.96;;;20.12;66.16
33286;BME280;19656;50.096;20.014;2023-07-31T02:06:11;98570.75;;;20.05;66.65
33286;BME280;19656;50.096;20.014;2023-07-31T02:11:14;98568.75;;;19.99;67.05
33286;BME280;19656;50.096;20.014;2023-07-31T02:16:18;98573.52;;;19.95;67.29
33286;BME280;19656;50.096;20.014;2023-07-31T02:29:24;98588.55;;;20.02;67.59
33286;BME280;19656;50.096;20.014;2023-07-31T02:34:27;98607.04;;;20.04;67.65
33286;BME280;19656;50.096;20.014;2023-07-31T02:39:31;98613.82;;;19.97;67.69
33286;BME280;19656;50.096;20.014;2023-07-31T02:44:34;98618.05;;;19.93;67.92
33286;BME280;19656;50.096;20.014;2023-07-31T02:49:37;98625.73;;;19.92;68.13
33286;BME280;19656;50.096;20.014;2023-07-31T02:54:41;98631.70;;;19.92;68.24
33286;BME280;19656;50.096;20.014;2023-07-31T02:59:44;98638.17;;;19.93;68.36
33286;BME280;19656;50.096;20.014;2023-07-31T03:04:47;98642.13;;;19.92;68.24
33286;BME280;19656;50.096;20.014;2023-07-31T03:09:50;98647.47;;;19.91;68.32
33286;BME280;19656;50.096;20.014;2023-07-31T03:14:53;98647.23;;;19.86;68.44
33286;BME280;19656;50.096;20.014;2023-07-31T03:19:56;98646.76;;;19.80;68.56
33286;BME280;19656;50.096;20.014;2023-07-31T03:25:00;98652.14;;;19.77;68.71
33286;BME280;19656;50.096;20.014;2023-07-31T03:30:03;98648.27;;;19.81;68.66
33286;BME280;19656;50.096;20.014;2023-07-31T03:35:07;98650.21;;;19.85;68.47
33286;BME280;19656;50.096;20.014;2023-07-31T03:40:10;98649.52;;;19.83;68.35
33286;BME280;19656;50.096;20.014;2023-07-31T03:45:14;98647.63;;;19.81;68.35
33286;BME280;19656;50.096;20.014;2023-07-31T03:50:17;98652.88;;;19.77;68.19
33286;BME280;19656;50.096;20.014;2023-07-31T03:55:20;98657.96;;;19.73;68.28
33286;BME280;19656;50.096;20.014;2023-07-31T04:00:26;98654.11;;;19.72;68.33
33286;BME280;19656;50.096;20.014;2023-07-31T04:05:32;98658.83;;;19.77;68.17
33286;BME280;19656;50.096;20.014;2023-07-31T04:10:36;98657.16;;;19.82;68.09
33286;BME280;19656;50.096;20.014;2023-07-31T04:15:39;98655.42;;;19.81;67.92
33286;BME280;19656;50.096;20.014;2023-07-31T04:20:50;98652.17;;;19.84;67.86
33286;BME280;19656;50.096;20.014;2023-07-31T04:25:53;98654.41;;;19.86;67.86
33286;BME280;19656;50.096;20.014;2023-07-31T04:30:56;98656.60;;;19.86;67.77
33286;BME280;19656;50.096;20.014;2023-07-31T04:36:00;98664.02;;;19.80;67.61
33286;BME280;19656;50.096;20.014;2023-07-31T04:41:03;98666.61;;;19.76;67.61
33286;BME280;19656;50.096;20.014;2023-07-31T04:46:08;98672.16;;;19.80;67.57
33286;BME280;19656;50.096;20.014;2023-07-31T04:51:12;98673.95;;;19.85;67.39
33286;BME280;19656;50.096;20.014;2023-07-31T04:56:15;98679.88;;;19.91;67.34
33286;BME280;19656;50.096;20.014;2023-07-31T05:01:19;98690.79;;;19.95;67.00
33286;BME280;19656;50.096;20.014;2023-07-31T05:06:22;98702.85;;;19.88;66.71
33286;BME280;19656;50.096;20.014;2023-07-31T05:11:25;98704.73;;;19.79;66.86
33286;BME280;19656;50.096;20.014;2023-07-31T05:16:28;98708.73;;;19.73;67.08
33286;BME280;19656;50.096;20.014;2023-07-31T05:21:32;98714.20;;;19.76;67.38
33286;BME280;19656;50.096;20.014;2023-07-31T05:26:35;98717.13;;;19.86;67.29
33286;BME280;19656;50.096;20.014;2023-07-31T05:31:41;98722.36;;;19.97;67.06
33286;BME280;19656;50.096;20.014;2023-07-31T05:36:49;98726.84;;;20.00;66.54
33286;BME280;19656;50.096;20.014;2023-07-31T05:41:54;98726.36;;;19.99;66.21
33286;BME280;19656;50.096;20.014;2023-07-31T05:47:05;98728.36;;;19.97;66.14
33286;BME280;19656;50.096;20.014;2023-07-31T05:52:08;98731.30;;;20.00;66.07
33286;BME280;19656;50.096;20.014;2023-07-31T05:57:11;98738.29;;;20.02;65.97
33286;BME280;19656;50.096;20.014;2023-07-31T06:02:15;98737.57;;;20.00;65.80
33286;BME280;19656;50.096;20.014;2023-07-31T06:07:18;98740.19;;;20.02;65.55
33286;BME280;19656;50.096;20.014;2023-07-31T06:12:22;98740.71;;;20.06;65.38
33286;BME280;19656;50.096;20.014;2023-07-31T06:17:25;98741.27;;;20.11;65.09
33286;BME280;19656;50.096;20.014;2023-07-31T06:22:29;98735.59;;;20.08;64.89
33286;BME280;19656;50.096;20.014;2023-07-31T06:27:32;98737.11;;;20.11;65.03
33286;BME280;19656;50.096;20.014;2023-07-31T06:32:35;98732.71;;;20.10;64.87
33286;BME280;19656;50.096;20.014;2023-07-31T06:37:39;98741.64;;;20.07;65.05
33286;BME280;19656;50.096;20.014;2023-07-31T06:42:43;98743.05;;;20.06;64.94
33286;BME280;19656;50.096;20.014;2023-07-31T06:47:46;98736.56;;;20.08;65.30
33286;BME280;19656;50.096;20.014;2023-07-31T06:52:49;98731.64;;;20.12;64.98
33286;BME280;19656;50.096;20.014;2023-07-31T06:57:54;98734.42;;;20.18;64.85
33286;BME280;19656;50.096;20.014;2023-07-31T07:02:58;98736.71;;;20.25;64.74
33286;BME280;19656;50.096;20.014;2023-07-31T07:08:01;98736.67;;;20.32;64.44
33286;BME280;19656;50.096;20.014;2023-07-31T07:13:04;98731.55;;;20.36;63.91
33286;BME280;19656;50.096;20.014;2023-07-31T07:18:08;98735.55;;;20.41;63.62
33286;BME280;19656;50.096;20.014;2023-07-31T07:23:11;98735.71;;;20.49;63.04
33286;BME280;19656;50.096;20.014;2023-07-31T07:28:14;98735.30;;;20.57;61.77
33286;BME280;19656;50.096;20.014;2023-07-31T07:33:17;98730.69;;;20.63;61.68
33286;BME280;19656;50.096;20.014;2023-07-31T07:38:21;98728.19;;;20.71;61.98
33286;BME280;19656;50.096;20.014;2023-07-31T07:43:24;98733.08;;;20.81;61.98
33286;BME280;19656;50.096;20.014;2023-07-31T07:48:28;98733.92;;;20.87;61.82
33286;BME280;19656;50.096;20.014;2023-07-31T07:53:32;98735.72;;;20.89;61.72
33286;BME280;19656;50.096;20.014;2023-07-31T07:58:35;98734.60;;;20.94;61.46
33286;BME280;19656;50.096;20.014;2023-07-31T08:03:43;98739.55;;;20.92;61.40
33286;BME280;19656;50.096;20.014;2023-07-31T08:08:47;98738.83;;;20.95;61.60
33286;BME280;19656;50.096;20.014;2023-07-31T08:13:50;98736.60;;;21.04;61.21
33286;BME280;19656;50.096;20.014;2023-07-31T08:18:53;98731.99;;;21.09;60.76
33286;BME280;19656;50.096;20.014;2023-07-31T08:23:57;98736.53;;;21.13;60.16
33286;BME280;19656;50.096;20.014;2023-07-31T08:29:00;98737.61;;;21.18;59.87
33286;BME280;19656;50.096;20.014;2023-07-31T08:34:04;98739.23;;;21.24;59.44
33286;BME280;19656;50.096;20.014;2023-07-31T08:39:07;98749.85;;;21.35;59.22
33286;BME280;19656;50.096;20.014;2023-07-31T08:44:11;98749.88;;;21.39;58.95
33286;BME280;19656;50.096;20.014;2023-07-31T08:49:16;98752.47;;;21.43;59.19
33286;BME280;19656;50.096;20.014;2023-07-31T08:57:57;98749.17;;;21.49;58.84
33286;BME280;19656;50.096;20.014;2023-07-31T09:03:08;98741.46;;;21.48;58.70
33286;BME280;19656;50.096;20.014;2023-07-31T09:08:14;98742.95;;;21.46;58.30
33286;BME280;19656;50.096;20.014;2023-07-31T09:13:18;98745.49;;;21.46;58.27
33286;BME280;19656;50.096;20.014;2023-07-31T09:18:21;98742.55;;;21.43;58.08
33286;BME280;19656;50.096;20.014;2023-07-31T09:23:25;98739.16;;;21.41;58.30
33286;BME280;19656;50.096;20.014;2023-07-31T09:28:31;98735.91;;;21.50;58.64
33286;BME280;19656;50.096;20.014;2023-07-31T09:33:54;98732.89;;;21.65;58.07
33286;BME280;19656;50.096;20.014;2023-07-31T09:39:11;98731.20;;;21.80;57.87
33286;BME280;19656;50.096;20.014;2023-07-31T09:44:15;98730.04;;;21.96;57.86
33286;BME280;19656;50.096;20.014;2023-07-31T09:49:18;98727.32;;;22.19;57.71
33286;BME280;19656;50.096;20.014;2023-07-31T09:54:21;98719.80;;;22.38;56.38
33286;BME280;19656;50.096;20.014;2023-07-31T09:59:25;98718.65;;;22.50;55.17
33286;BME280;19656;50.096;20.014;2023-07-31T10:04:29;98708.19;;;22.64;54.70
33286;BME280;19656;50.096;20.014;2023-07-31T10:09:33;98708.65;;;22.89;54.89
33286;BME280;19656;50.096;20.014;2023-07-31T10:14:38;98707.55;;;23.11;52.88
33286;BME280;19656;50.096;20.014;2023-07-31T10:19:43;98693.03;;;23.39;53.01
33286;BME280;19656;50.096;20.014;2023-07-31T10:24:46;98695.07;;;23.76;51.40
33286;BME280;19656;50.096;20.014;2023-07-31T10:29:52;98683.36;;;24.02;50.65
33286;BME280;19656;50.096;20.014;2023-07-31T10:34:57;98674.35;;;24.11;49.77
33286;BME280;19656;50.096;20.014;2023-07-31T10:40:03;98673.02;;;24.25;47.51
33286;BME280;19656;50.096;20.014;2023-07-31T10:45:08;98669.01;;;24.33;47.11
33286;BME280;19656;50.096;20.014;2023-07-31T10:50:19;98661.22;;;24.46;46.07
33286;BME280;19656;50.096;20.014;2023-07-31T10:55:43;98659.50;;;24.58;45.64
33286;BME280;19656;50.096;20.014;2023-07-31T11:01:03;98653.65;;;24.50;45.33
33286;BME280;19656;50.096;20.014;2023-07-31T11:06:07;98649.41;;;24.71;45.61
33286;BME280;19656;50.096;20.014;2023-07-31T11:11:12;98646.80;;;24.79;44.44
33286;BME280;19656;50.096;20.014;2023-07-31T11:16:18;98640.89;;;24.89;44.05
33286;BME280;19656;50.096;20.014;2023-07-31T11:25:10;98635.02;;;24.68;43.10
33286;BME280;19656;50.096;20.014;2023-07-31T11:30:13;98638.76;;;24.39;43.34
33286;BME280;19656;50.096;20.014;2023-07-31T11:35:16;98636.16;;;24.35;44.04
33286;BME280;19656;50.096;20.014;2023-07-31T11:40:19;98638.55;;;24.14;44.32
33286;BME280;19656;50.096;20.014;2023-07-31T11:45:36;98629.88;;;24.31;44.11
33286;BME280;19656;50.096;20.014;2023-07-31T11:50:39;98621.81;;;24.76;43.56
33286;BME280;19656;50.096;20.014;2023-07-31T11:55:43;98621.03;;;25.12;42.97
33286;BME280;19656;50.096;20.014;2023-07-31T12:00:47;98621.15;;;25.03;42.18
33286;BME280;19656;50.096;20.014;2023-07-31T12:05:53;98616.77;;;24.82;42.39
33286;BME280;19656;50.096;20.014;2023-07-31T12:11:05;98610.89;;;24.61;42.51
33286;BME280;19656;50.096;20.014;2023-07-31T12:16:09;98613.21;;;24.58;42.90
33286;BME280;19656;50.096;20.014;2023-07-31T12:21:12;98605.14;;;24.90;41.52
33286;BME280;19656;50.096;20.014;2023-07-31T12:26:16;98601.77;;;25.25;40.89
33286;BME280;19656;50.096;20.014;2023-07-31T12:31:33;98598.16;;;25.57;41.05
33286;BME280;19656;50.096;20.014;2023-07-31T12:36:49;98593.93;;;25.90;40.43
33286;BME280;19656;50.096;20.014;2023-07-31T12:41:52;98584.82;;;26.16;38.67
33286;BME280;19656;50.096;20.014;2023-07-31T12:46:56;98584.55;;;26.30;37.98
33286;BME280;19656;50.096;20.014;2023-07-31T12:51:59;98573.81;;;26.57;38.28
33286;BME280;19656;50.096;20.014;2023-07-31T12:57:02;98575.50;;;26.85;38.32
33286;BME280;19656;50.096;20.014;2023-07-31T13:02:06;98565.30;;;27.18;37.45
33286;BME280;19656;50.096;20.014;2023-07-31T13:07:09;98555.68;;;27.47;37.25
33286;BME280;19656;50.096;20.014;2023-07-31T13:12:12;98548.05;;;27.92;36.89
33286;BME280;19656;50.096;20.014;2023-07-31T14:56:56;98476.52;;;27.32;34.00
33286;BME280;19656;50.096;20.014;2023-07-31T15:01:59;98472.42;;;27.18;33.94
33286;BME280;19656;50.096;20.014;2023-07-31T15:07:03;98477.60;;;26.92;33.75
33286;BME280;19656;50.096;20.014;2023-07-31T15:12:07;98476.61;;;26.63;34.51
33286;BME280;19656;50.096;20.014;2023-07-31T15:17:10;98477.81;;;26.40;35.00
33286;BME280;19656;50.096;20.014;2023-07-31T15:22:13;98476.89;;;26.27;35.40
33286;BME280;19656;50.096;20.014;2023-07-31T15:27:17;98476.47;;;26.17;36.03
33286;BME280;19656;50.096;20.014;2023-07-31T15:32:21;98478.30;;;26.02;35.84
33286;BME280;19656;50.096;20.014;2023-07-31T15:37:25;98470.05;;;25.87;36.08
33286;BME280;19656;50.096;20.014;2023-07-31T15:42:28;98469.66;;;25.80;36.25
33286;BME280;19656;50.096;20.014;2023-07-31T15:47:31;98466.05;;;25.73;36.67
33286;BME280;19656;50.096;20.014;2023-07-31T15:52:35;98464.33;;;25.69;37.10
33286;BME280;19656;50.096;20.014;2023-07-31T15:57:40;98464.06;;;25.62;37.20
33286;BME280;19656;50.096;20.014;2023-07-31T16:02:43;98463.13;;;25.58;37.35
33286;BME280;19656;50.096;20.014;2023-07-31T16:07:47;98460.90;;;25.56;37.78
33286;BME280;19656;50.096;20.014;2023-07-31T16:12:50;98459.55;;;25.53;37.98
33286;BME280;19656;50.096;20.014;2023-07-31T16:17:53;98453.80;;;25.48;38.50
33286;BME280;19656;50.096;20.014;2023-07-31T16:22:59;98454.85;;;25.39;38.38
33286;BME280;19656;50.096;20.014;2023-07-31T16:28:03;98450.77;;;25.34;38.60
33286;BME280;19656;50.096;20.014;2023-07-31T16:33:08;98446.94;;;25.29;38.78
33286;BME280;19656;50.096;20.014;2023-07-31T16:38:19;98448.27;;;25.24;38.72
33286;BME280;19656;50.096;20.014;2023-07-31T16:43:23;98442.75;;;25.16;39.09
33286;BME280;19656;50.096;20.014;2023-07-31T16:48:26;98442.15;;;25.14;39.41
33286;BME280;19656;50.096;20.014;2023-07-31T16:53:30;98441.46;;;25.12;39.91
33286;BME280;19656;50.096;20.014;2023-07-31T16:58:33;98444.09;;;25.10;39.94
33286;BME280;19656;50.096;20.014;2023-07-31T17:03:36;98438.67;;;25.03;39.87
33286;BME280;19656;50.096;20.014;2023-07-31T17:08:40;98441.56;;;24.93;39.95
33286;BME280;19656;50.096;20.014;2023-07-31T17:13:43;98439.11;;;24.87;40.10
33286;BME280;19656;50.096;20.014;2023-07-31T17:18:53;98439.98;;;24.85;40.20
33286;BME280;19656;50.096;20.014;2023-07-31T17:23:56;98438.73;;;24.80;40.08
33286;BME280;19656;50.096;20.014;2023-07-31T17:28:59;98436.37;;;24.72;40.13
33286;BME280;19656;50.096;20.014;2023-07-31T17:34:05;98442.02;;;24.63;40.27
33286;BME280;19656;50.096;20.014;2023-07-31T17:39:08;98441.65;;;24.57;40.59
33286;BME280;19656;50.096;20.014;2023-07-31T17:44:12;98443.27;;;24.56;40.78
33286;BME280;19656;50.096;20.014;2023-07-31T17:49:15;98445.19;;;24.52;40.78
33286;BME280;19656;50.096;20.014;2023-07-31T17:54:20;98452.11;;;24.46;40.99
33286;BME280;19656;50.096;20.014;2023-07-31T17:59:34;98457.87;;;24.39;41.18
33286;BME280;19656;50.096;20.014;2023-07-31T18:04:37;98459.00;;;24.35;41.52
33286;BME280;19656;50.096;20.014;2023-07-31T18:09:40;98459.39;;;24.31;41.82
33286;BME280;19656;50.096;20.014;2023-07-31T18:14:46;98454.93;;;24.28;42.10
33286;BME280;19656;50.096;20.014;2023-07-31T18:19:50;98456.38;;;24.21;42.26
33286;BME280;19656;50.096;20.014;2023-07-31T18:24:53;98458.65;;;24.18;42.71
33286;BME280;19656;50.096;20.014;2023-07-31T18:29:57;98465.10;;;24.13;43.13
33286;BME280;19656;50.096;20.014;2023-07-31T18:35:00;98467.88;;;24.06;43.51
33286;BME280;19656;50.096;20.014;2023-07-31T18:40:04;98464.41;;;24.02;43.44
33286;BME280;19656;50.096;20.014;2023-07-31T18:45:07;98467.41;;;23.96;43.65
33286;BME280;19656;50.096;20.014;2023-07-31T18:50:11;98475.36;;;23.88;43.63
33286;BME280;19656;50.096;20.014;2023-07-31T18:55:14;98479.95;;;23.78;43.97
33286;BME280;19656;50.096;20.014;2023-07-31T19:00:18;98480.13;;;23.71;44.61
33286;BME280;19656;50.096;20.014;2023-07-31T19:05:21;98476.77;;;23.69;44.67
33286;BME280;19656;50.096;20.014;2023-07-31T19:10:24;98481.71;;;23.58;46.22
33286;BME280;19656;50.096;20.014;2023-07-31T19:15:28;98485.73;;;23.38;47.05
33286;BME280;19656;50.096;20.014;2023-07-31T19:20:31;98496.64;;;23.20;48.08
33286;BME280;19656;50.096;20.014;2023-07-31T19:25:34;98499.11;;;23.03;48.74
33286;BME280;19656;50.096;20.014;2023-07-31T19:30:38;98502.00;;;22.87;48.46
33286;BME280;19656;50.096;20.014;2023-07-31T19:35:42;98503.11;;;22.74;49.31
33286;BME280;19656;50.096;20.014;2023-07-31T19:40:45;98508.25;;;22.59;50.29
33286;BME280;19656;50.096;20.014;2023-07-31T19:45:56;98512.05;;;22.45;50.68
33286;BME280;19656;50.096;20.014;2023-07-31T19:51:18;98512.77;;;22.33;50.94
33286;BME280;19656;50.096;20.014;2023-07-31T19:56:21;98510.80;;;22.25;50.83
33286;BME280;19656;50.096;20.014;2023-07-31T20:01:24;98508.81;;;22.17;51.27
33286;BME280;19656;50.096;20.014;2023-07-31T20:06:28;98501.89;;;22.09;51.89
33286;BME280;19656;50.096;20.014;2023-07-31T20:11:31;98497.64;;;21.97;52.59
33286;BME280;19656;50.096;20.014;2023-07-31T20:16:34;98494.24;;;21.86;53.03
33286;BME280;19656;50.096;20.014;2023-07-31T20:21:42;98484.73;;;21.75;53.74
33286;BME280;19656;50.096;20.014;2023-07-31T20:26:45;98476.42;;;21.63;54.09
33286;BME280;19656;50.096;20.014;2023-07-31T20:31:48;98466.23;;;21.53;54.59
33286;BME280;19656;50.096;20.014;2023-07-31T20:36:51;98458.59;;;21.45;55.11
33286;BME280;19656;50.096;20.014;2023-07-31T20:41:54;98462.70;;;21.35;55.69
33286;BME280;19656;50.096;20.014;2023-07-31T20:46:58;98471.31;;;21.23;56.37
33286;BME280;19656;50.096;20.014;2023-07-31T20:52:01;98469.31;;;21.15;56.74
33286;BME280;19656;50.096;20.014;2023-07-31T20:57:05;98467.96;;;21.10;57.26
33286;BME280;19656;50.096;20.014;2023-07-31T21:02:09;98462.39;;;21.01;57.72
33286;BME280;19656;50.096;20.014;2023-07-31T21:07:12;98457.07;;;20.94;57.82
33286;BME280;19656;50.096;20.014;2023-07-31T21:12:18;98445.36;;;20.88;58.11
33286;BME280;19656;50.096;20.014;2023-07-31T21:17:21;98438.46;;;20.82;58.49
33286;BME280;19656;50.096;20.014;2023-07-31T21:22:24;98433.23;;;20.77;58.79
33286;BME280;19656;50.096;20.014;2023-07-31T21:27:28;98429.92;;;20.70;59.04
33286;BME280;19656;50.096;20.014;2023-07-31T21:32:32;98429.86;;;20.63;59.73
33286;BME280;19656;50.096;20.014;2023-07-31T21:37:38;98427.63;;;20.57;60.24
33286;BME280;19656;50.096;20.014;2023-07-31T21:42:41;98420.54;;;20.50;60.75
33286;BME280;19656;50.096;20.014;2023-07-31T21:47:44;98408.88;;;20.44;60.97
33286;BME280;19656;50.096;20.014;2023-07-31T21:52:50;98408.46;;;20.37;61.07
33286;BME280;19656;50.096;20.014;2023-07-31T21:57:54;98401.36;;;20.31;61.33
33286;BME280;19656;50.096;20.014;2023-07-31T22:02:58;98395.77;;;20.23;61.63
33286;BME280;19656;50.096;20.014;2023-07-31T22:08:01;98391.05;;;20.14;61.90
33286;BME280;19656;50.096;20.014;2023-07-31T22:13:04;98387.34;;;20.04;61.88
33286;BME280;19656;50.096;20.014;2023-07-31T22:18:08;98383.55;;;19.97;62.41
33286;BME280;19656;50.096;20.014;2023-07-31T22:23:11;98375.15;;;19.88;62.39
33286;BME280;19656;50.096;20.014;2023-07-31T22:28:14;98369.35;;;19.83;62.76
33286;BME280;19656;50.096;20.014;2023-07-31T22:33:23;98366.89;;;19.84;62.96
33286;BME280;19656;50.096;20.014;2023-07-31T22:38:26;98366.01;;;19.84;63.25
33286;BME280;19656;50.096;20.014;2023-07-31T22:43:29;98361.05;;;19.82;63.29
33286;BME280;19656;50.096;20.014;2023-07-31T23:25:54;98353.42;;;19.30;64.90
33286;BME280;19656;50.096;20.014;2023-07-31T23:31:02;98353.02;;;19.24;65.19
33286;BME280;19656;50.096;20.014;2023-07-31T23:36:10;98351.70;;;19.25;65.13
33286;BME280;19656;50.096;20.014;2023-07-31T23:41:14;98350.86;;;19.24;65.04
33286;BME280;19656;50.096;20.014;2023-07-31T23:46:19;98355.13;;;19.20;65.14
33286;BME280;19656;50.096;20.014;2023-07-31T23:51:27;98349.44;;;19.17;65.28
33286;BME280;19656;50.096;20.014;2023-07-31T23:56:52;98348.16;;;19.14;65.47
